Time;durP1;ratioP1;P1;durP2;ratioP2;P2;SDS_P1;SDS_P2;PMS_P1;PMS_P2;Temp;Humidity;BMP_temperature;BMP_pressure;BME280_temperature;BME280_humidity;BME280_pressure;Samples;Min_cycle;Max_cycle;Signal;HPM_P1;HPM_P2
2021/01/16 01:46:12;;;;;;;8.15;5.62;;;;;;;0.37;52.31;94071.77;825936;71;33184;-75
2021/01/16 02:01:11;;;;;;;6.37;5.20;;;;;;;0.34;52.14;94058.80;828746;71;30282;-75
2021/01/16 02:46:38;;;;;;;7.87;5.12;;;;;;;0.39;53.60;94057.61;827902;71;32987;-75
2021/01/16 03:01:15;;;;;;;7.00;5.85;;;;;;;0.34;55.78;94054.16;829795;71;32547;-77
2021/01/16 03:31:26;;;;;;;11.03;8.00;;;;;;;0.22;58.70;94040.05;828365;71;32681;-77
2021/01/16 05:01:36;;;;;;;10.35;8.00;;;;;;;-0.13;58.24;94047.98;802110;74;32005;-76
2021/01/16 05:46:37;;;;;;;13.15;9.18;;;;;;;-0.43;57.46;94061.39;780383;75;32453;-78
2021/01/16 06:01:57;;;;;;;12.05;8.28;;;;;;;-0.42;56.85;94059.08;829228;71;25871;-77
2021/01/16 06:31:37;;;;;;;17.02;10.82;;;;;;;-0.16;55.21;94056.16;780151;75;31963;-78
2021/01/16 06:46:47;;;;;;;10.65;6.60;;;;;;;-0.10;51.97;94065.07;829011;70;31712;-79
2021/01/16 07:16:13;;;;;;;11.97;7.20;;;;;;;-0.11;49.44;94074.31;827835;71;31580;-76
2021/01/16 07:31:46;;;;;;;11.22;7.30;;;;;;;-0.02;51.04;94075.49;787316;75;31946;-79
2021/01/16 08:31:36;;;;;;;13.62;9.15;;;;;;;0.57;54.29;94103.05;786521;75;32123;-77
2021/01/16 09:16:33;;;;;;;8.58;5.53;;;;;;;0.59;49.81;94088.11;827894;71;32590;-76
2021/01/16 09:31:47;;;;;;;11.20;7.15;;;;;;;0.80;49.17;94077.56;802173;74;31970;-78
2021/01/16 09:46:17;;;;;;;10.23;6.90;;;;;;;0.87;48.70;94055.96;828527;71;32560;-76
2021/01/16 10:01:19;;;;;;;9.45;6.08;;;;;;;1.63;46.49;94035.95;828921;71;31689;-77
2021/01/16 10:16:15;;;;;;;9.85;7.03;;;;;;;2.31;44.55;94020.77;829462;71;32690;-77
2021/01/16 10:31:41;;;;;;;8.73;6.85;;;;;;;3.94;42.48;94009.08;787572;75;32883;-76
2021/01/16 11:31:31;;;;;;;7.70;4.33;;;;;;;3.68;35.20;93943.92;828191;71;32523;-79
2021/01/16 12:01:41;;;;;;;6.25;4.50;;;;;;;2.62;36.88;93938.92;794213;72;33331;-79
2021/01/16 12:16:13;;;;;;;6.65;4.60;;;;;;;2.20;37.92;93936.59;827561;71;32540;-77
2021/01/16 12:46:13;;;;;;;6.30;4.55;;;;;;;1.00;39.15;93926.48;827436;71;32536;-77
2021/01/16 13:01:35;;;;;;;7.05;5.78;;;;;;;0.57;41.21;93950.77;780550;75;33016;-78
2021/01/16 13:16:49;;;;;;;8.80;4.78;;;;;;;0.43;41.43;93965.52;787553;75;32822;-78
2021/01/16 13:46:50;;;;;;;7.60;4.40;;;;;;;0.38;41.82;93972.17;787372;75;33257;-77
2021/01/16 14:16:47;;;;;;;10.55;5.30;;;;;;;-0.05;43.28;93977.98;802560;74;32861;-79
2021/01/16 14:31:47;;;;;;;8.55;5.17;;;;;;;-0.24;43.99;93980.79;787569;75;32889;-78
2021/01/16 14:46:37;;;;;;;8.40;6.40;;;;;;;-0.39;44.41;93990.05;802081;74;32856;-78
2021/01/16 15:01:40;;;;;;;8.83;6.10;;;;;;;-0.52;45.01;94001.44;787428;75;32947;-79
2021/01/16 15:31:39;;;;;;;10.38;5.55;;;;;;;-0.15;47.46;94046.14;780058;75;32884;-76
2021/01/16 15:46:40;;;;;;;10.98;6.50;;;;;;;-0.69;47.51;94052.88;780328;75;33422;-78
2021/01/16 16:16:39;;;;;;;11.90;6.87;;;;;;;-1.41;50.55;94072.78;780080;75;33019;-78
2021/01/16 16:46:40;;;;;;;13.38;8.40;;;;;;;-1.68;51.97;94102.00;787660;75;32958;-77
2021/01/16 17:01:41;;;;;;;12.82;7.05;;;;;;;-1.76;52.73;94104.09;780149;75;32950;-76
2021/01/16 17:02:46;;;;;;;14.65;8.00;;;;;;;-1.79;52.94;94107.11;765005;77;26240;-78
2021/01/16 17:03:49;;;;;;;14.18;8.88;;;;;;;-1.72;53.06;94107.81;765004;77;26310;-77
2021/01/16 17:04:53;;;;;;;15.48;9.50;;;;;;;-1.65;53.04;94107.97;765035;77;26740;-79
2021/01/16 17:05:58;;;;;;;14.05;8.53;;;;;;;-1.55;53.01;94112.58;764977;77;26294;-77
2021/01/16 17:07:01;;;;;;;13.32;8.48;;;;;;;-1.46;52.95;94107.89;765109;77;26733;-76
2021/01/16 17:08:05;;;;;;;11.95;7.87;;;;;;;-1.35;52.82;94112.78;764987;76;26767;-77
2021/01/16 17:09:10;;;;;;;14.33;8.55;;;;;;;-1.25;52.65;94108.64;765037;77;26755;-78
2021/01/16 17:10:15;;;;;;;14.07;8.10;;;;;;;-1.18;52.46;94104.66;764928;77;26291;-76
2021/01/16 17:11:19;;;;;;;14.53;7.87;;;;;;;-1.12;52.25;94104.28;764982;77;26244;-79
2021/01/16 17:12:23;;;;;;;13.38;8.00;;;;;;;-1.06;52.26;94105.95;764965;77;26307;-76
2021/01/16 17:13:27;;;;;;;11.78;8.45;;;;;;;-1.02;51.99;94103.20;764937;77;26669;-78
2021/01/16 17:14:30;;;;;;;13.00;8.35;;;;;;;-0.96;51.85;94113.12;764873;77;26236;-77
2021/01/16 17:15:35;;;;;;;14.45;8.65;;;;;;;-0.96;51.74;94111.83;765011;77;26240;-77
2021/01/16 17:16:44;;;;;;;13.83;7.95;;;;;;;-0.92;51.56;94116.30;765204;76;26248;-78
2021/01/16 17:17:48;;;;;;;13.03;8.93;;;;;;;-0.87;51.44;94117.70;764960;77;26836;-76
2021/01/16 17:18:54;;;;;;;14.20;9.28;;;;;;;-0.83;51.28;94116.76;764976;77;26287;-75
2021/01/16 17:19:58;;;;;;;14.80;8.73;;;;;;;-0.79;51.08;94118.36;764997;77;27179;-76
2021/01/16 17:21:03;;;;;;;13.40;8.20;;;;;;;-0.76;50.93;94122.56;764955;77;26291;-78
2021/01/16 17:22:10;;;;;;;15.05;8.50;;;;;;;-0.73;50.88;94123.41;765078;77;26310;-77
2021/01/16 17:23:15;;;;;;;12.95;8.40;;;;;;;-0.72;50.78;94122.89;764935;77;26300;-78
2021/01/16 17:24:19;;;;;;;12.00;7.85;;;;;;;-0.71;50.67;94121.39;764962;77;26275;-78
2021/01/16 17:25:23;;;;;;;13.95;8.10;;;;;;;-0.69;50.66;94112.93;765061;76;26781;-76
2021/01/16 17:26:27;;;;;;;12.28;8.03;;;;;;;-0.67;50.53;94117.84;764863;77;26247;-78
2021/01/16 17:27:34;;;;;;;11.03;7.55;;;;;;;-0.66;50.37;94120.70;765031;77;26291;-79
2021/01/16 17:28:38;;;;;;;11.33;7.40;;;;;;;-0.64;50.40;94118.17;764830;77;26666;-78
2021/01/16 17:29:43;;;;;;;13.00;7.78;;;;;;;-0.62;50.35;94123.11;764997;77;26305;-77
2021/01/16 17:30:47;;;;;;;12.25;7.55;;;;;;;-0.60;50.27;94126.23;764934;77;26775;-78
2021/01/16 17:31:50;;;;;;;12.75;7.78;;;;;;;-0.58;50.23;94122.16;765091;77;26666;-78
2021/01/16 17:32:55;;;;;;;9.83;7.75;;;;;;;-0.61;50.18;94124.66;765018;77;26342;-77
2021/01/16 17:33:59;;;;;;;12.55;8.20;;;;;;;-0.59;50.19;94127.78;776792;76;26269;-78
2021/01/16 17:35:03;;;;;;;12.78;8.13;;;;;;;-0.61;50.32;94134.48;778405;76;26733;-77
2021/01/16 17:36:07;;;;;;;12.25;7.95;;;;;;;-0.56;50.26;94125.28;778441;76;26703;-79
2021/01/16 17:37:11;;;;;;;10.78;7.95;;;;;;;-0.59;50.18;94121.34;778282;76;26230;-79
2021/01/16 17:38:15;;;;;;;11.40;7.85;;;;;;;-0.57;50.10;94130.14;778208;76;26292;-79
2021/01/16 17:39:18;;;;;;;11.78;7.97;;;;;;;-0.57;50.08;94123.19;778110;76;26229;-79
2021/01/16 17:40:23;;;;;;;12.07;8.15;;;;;;;-0.55;50.05;94126.32;778363;76;24232;-78
2021/01/16 17:41:38;;;;;;;13.05;7.97;;;;;;;-0.54;50.02;94122.75;778487;76;26663;-78
2021/01/16 17:42:44;;;;;;;12.05;8.05;;;;;;;-0.56;50.03;94124.00;778564;76;26272;-78
2021/01/16 17:43:48;;;;;;;13.03;7.70;;;;;;;-0.56;49.97;94128.64;778156;76;26295;-77
2021/01/16 17:44:52;;;;;;;11.73;8.28;;;;;;;-0.55;49.97;94126.83;778609;76;26287;-78
2021/01/16 17:45:55;;;;;;;15.83;8.78;;;;;;;-0.55;50.02;94125.03;778446;76;26687;-77
2021/01/16 17:46:59;;;;;;;12.55;8.28;;;;;;;-0.55;50.00;94134.05;778380;76;26369;-77
2021/01/16 17:48:03;;;;;;;13.20;9.08;;;;;;;-0.54;50.06;94130.99;778461;76;26273;-78
2021/01/16 17:49:12;;;;;;;13.32;9.50;;;;;;;-0.53;50.07;94132.03;778584;76;26284;-76
2021/01/16 17:50:19;;;;;;;13.10;8.60;;;;;;;-0.51;50.00;94135.16;778208;76;26311;-78
2021/01/16 17:51:22;;;;;;;14.58;9.00;;;;;;;-0.52;49.96;94138.77;778472;76;26226;-77
2021/01/16 17:52:26;;;;;;;16.25;8.90;;;;;;;-0.50;49.98;94133.39;778278;75;26234;-75
2021/01/16 17:53:31;;;;;;;13.55;8.10;;;;;;;-0.50;49.98;94134.68;778292;76;26229;-78
2021/01/16 17:54:36;;;;;;;12.95;9.10;;;;;;;-0.48;49.96;94139.10;778470;76;26276;-78
2021/01/16 17:55:43;;;;;;;13.58;9.05;;;;;;;-0.49;49.97;94134.94;778065;76;26297;-78
2021/01/16 17:56:46;;;;;;;12.25;8.83;;;;;;;-0.47;49.92;94131.64;778397;76;26221;-79
2021/01/16 17:57:50;;;;;;;13.43;7.75;;;;;;;-0.50;49.85;94123.09;777894;76;26238;-76
2021/01/16 17:58:54;;;;;;;13.88;8.55;;;;;;;-0.49;49.80;94133.14;778251;76;24261;-77
2021/01/16 17:59:57;;;;;;;14.68;8.90;;;;;;;-0.49;49.77;94137.52;778188;76;26229;-78
2021/01/16 18:01:03;;;;;;;14.25;9.40;;;;;;;-0.48;49.69;94132.66;778004;76;26246;-76
2021/01/16 18:02:10;;;;;;;16.35;9.25;;;;;;;-0.49;49.70;94136.23;768081;76;26321;-77
2021/01/16 18:03:13;;;;;;;16.12;9.63;;;;;;;-0.48;49.69;94136.52;771803;75;27002;-79
2021/01/16 18:04:18;;;;;;;12.65;9.23;;;;;;;-0.48;49.68;94133.95;783653;75;26322;-79
2021/01/16 18:05:22;;;;;;;13.98;8.90;;;;;;;-0.48;49.60;94137.81;778973;75;26251;-77
2021/01/16 18:06:28;;;;;;;17.12;8.98;;;;;;;-0.48;49.53;94136.52;770153;77;26345;-76
2021/01/16 18:07:31;;;;;;;13.53;9.53;;;;;;;-0.50;49.56;94129.02;781820;75;26282;-78
2021/01/16 18:08:36;;;;;;;13.08;8.65;;;;;;;-0.48;49.55;94132.66;783910;75;26272;-78
2021/01/16 18:09:39;;;;;;;13.78;9.00;;;;;;;-0.50;49.54;94138.03;774736;75;27163;-78
2021/01/16 18:10:43;;;;;;;14.60;8.15;;;;;;;-0.49;49.55;94137.52;770431;77;26279;-78
2021/01/16 18:11:46;;;;;;;14.45;8.40;;;;;;;-0.50;49.56;94140.61;780896;75;26292;-77
2021/01/16 18:12:50;;;;;;;11.73;8.25;;;;;;;-0.48;49.50;94138.59;783724;76;26230;-79
2021/01/16 18:13:55;;;;;;;14.70;8.45;;;;;;;-0.49;49.47;94134.94;784601;76;26244;-79
2021/01/16 18:15:00;;;;;;;17.35;9.25;;;;;;;-0.49;49.53;94139.58;773164;76;24604;-78
2021/01/16 18:16:04;;;;;;;14.45;9.20;;;;;;;-0.48;49.48;94140.39;782621;76;24177;-78
2021/01/16 18:17:08;;;;;;;11.15;8.00;;;;;;;-0.48;49.57;94141.68;781219;75;24169;-78
2021/01/16 18:18:12;;;;;;;14.63;9.20;;;;;;;-0.48;49.54;94136.52;781126;76;26344;-79
2021/01/16 18:19:15;;;;;;;13.58;8.98;;;;;;;-0.47;49.49;94143.23;783797;76;26717;-79
2021/01/16 18:20:20;;;;;;;13.45;9.65;;;;;;;-0.48;49.46;94145.03;783782;76;26221;-78
2021/01/16 18:21:24;;;;;;;12.13;8.20;;;;;;;-0.48;49.45;94144.25;783246;75;26714;-78
2021/01/16 18:22:29;;;;;;;13.83;9.18;;;;;;;-0.50;49.45;94147.56;785432;75;26314;-79
2021/01/16 18:23:34;;;;;;;12.75;8.50;;;;;;;-0.50;49.51;94149.63;789862;75;26247;-78
2021/01/16 18:24:37;;;;;;;16.23;9.88;;;;;;;-0.49;49.53;94149.89;785061;75;26683;-79
2021/01/16 18:25:42;;;;;;;15.18;9.30;;;;;;;-0.49;49.53;94147.83;770449;76;26753;-78
2021/01/16 18:26:52;;;;;;;13.32;9.03;;;;;;;-0.49;49.50;94148.60;770423;76;24182;-77
2021/01/16 18:27:56;;;;;;;12.63;8.83;;;;;;;-0.48;49.44;94150.70;769995;77;26244;-77
2021/01/16 18:29:00;;;;;;;13.15;9.15;;;;;;;-0.48;49.43;94145.03;770117;77;26708;-79
2021/01/16 18:30:08;;;;;;;11.75;8.93;;;;;;;-0.49;49.31;94142.16;774715;76;26355;-79
2021/01/16 18:31:12;;;;;;;11.25;8.88;;;;;;;-0.52;49.29;94147.78;783352;76;26232;-78
2021/01/16 18:32:16;;;;;;;13.28;8.90;;;;;;;-0.53;49.22;94146.20;782614;76;26237;-78
2021/01/16 18:33:20;;;;;;;13.43;9.38;;;;;;;-0.53;49.19;94142.34;770164;77;26298;-77
2021/01/16 18:34:23;;;;;;;13.78;9.63;;;;;;;-0.55;49.19;94145.64;770128;77;26247;-77
2021/01/16 18:35:27;;;;;;;12.73;8.85;;;;;;;-0.58;49.17;94145.34;770199;76;26701;-80
2021/01/16 18:36:31;;;;;;;14.43;9.53;;;;;;;-0.59;49.14;94146.33;770188;77;26677;-77
2021/01/16 18:37:34;;;;;;;13.72;9.08;;;;;;;-0.58;49.12;94149.98;770148;76;26351;-78
2021/01/16 18:38:40;;;;;;;13.22;8.63;;;;;;;-0.58;49.07;94149.98;769990;77;26235;-78
2021/01/16 18:39:44;;;;;;;14.60;9.13;;;;;;;-0.59;49.05;94148.39;770083;77;24686;-78
2021/01/16 18:40:48;;;;;;;13.45;8.60;;;;;;;-0.60;48.98;94152.00;783338;76;26276;-78
2021/01/16 18:41:55;;;;;;;13.80;9.33;;;;;;;-0.62;48.93;94152.22;786748;75;26294;-79
2021/01/16 18:42:58;;;;;;;11.12;8.50;;;;;;;-0.64;48.94;94151.66;789606;75;26297;-78
2021/01/16 18:44:03;;;;;;;14.50;8.78;;;;;;;-0.63;48.87;94155.02;789436;75;26353;-77
2021/01/16 18:45:08;;;;;;;15.80;9.38;;;;;;;-0.64;48.78;94154.75;782600;75;26255;-78
2021/01/16 18:46:13;;;;;;;11.28;8.40;;;;;;;-0.65;48.71;94150.11;769983;77;26733;-79
2021/01/16 18:47:17;;;;;;;13.50;9.10;;;;;;;-0.64;48.74;94152.17;770240;77;26297;-79
2021/01/16 18:48:21;;;;;;;13.90;8.73;;;;;;;-0.68;48.66;94144.11;769901;77;26294;-77
2021/01/16 18:49:25;;;;;;;15.80;9.60;;;;;;;-0.69;48.61;94149.48;770638;76;26278;-78
2021/01/16 18:50:28;;;;;;;13.08;9.33;;;;;;;-0.71;48.64;94147.63;783100;76;26233;-76
2021/01/16 18:51:39;;;;;;;12.25;8.70;;;;;;;-0.72;48.66;94146.08;783017;76;26237;-76
2021/01/16 18:52:42;;;;;;;12.47;8.93;;;;;;;-0.72;48.58;94149.94;772112;76;26283;-78
2021/01/16 18:53:46;;;;;;;14.55;8.90;;;;;;;-0.74;48.58;94147.58;770022;77;26601;-77
2021/01/16 18:54:51;;;;;;;16.32;9.53;;;;;;;-0.74;48.49;94148.09;773374;76;26307;-77
2021/01/16 18:55:55;;;;;;;12.93;8.88;;;;;;;-0.78;48.41;94140.54;770142;77;24547;-78
2021/01/16 18:56:59;;;;;;;13.62;9.23;;;;;;;-0.81;48.36;94138.70;770274;77;26306;-77
2021/01/16 18:58:03;;;;;;;12.55;8.70;;;;;;;-0.82;48.27;94144.06;770290;76;26248;-78
2021/01/16 18:59:09;;;;;;;11.53;7.80;;;;;;;-0.84;48.28;94139.64;770347;77;26306;-77
2021/01/16 19:00:14;;;;;;;13.08;8.63;;;;;;;-0.84;48.27;94143.50;770388;76;26247;-77
2021/01/16 19:01:19;;;;;;;12.10;8.80;;;;;;;-0.86;48.26;94145.52;769893;77;24691;-79
2021/01/16 19:02:24;;;;;;;16.37;10.40;;;;;;;-0.86;48.30;94146.81;769847;77;26231;-77
2021/01/16 19:03:28;;;;;;;18.02;10.23;;;;;;;-0.90;48.30;94144.41;769933;77;26313;-77
2021/01/16 19:04:31;;;;;;;19.00;10.20;;;;;;;-0.90;48.30;94143.89;769806;77;26741;-77
2021/01/16 19:05:35;;;;;;;15.45;9.53;;;;;;;-0.91;48.26;94145.40;769825;77;27047;-79
2021/01/16 19:06:40;;;;;;;15.95;9.53;;;;;;;-0.93;48.23;94144.36;769929;77;26712;-76
2021/01/16 19:07:47;;;;;;;15.60;9.55;;;;;;;-0.94;48.17;94146.64;769964;77;26307;-78
2021/01/16 19:08:51;;;;;;;13.28;9.40;;;;;;;-0.97;48.23;94140.66;769837;77;26240;-79
2021/01/16 19:09:56;;;;;;;14.47;9.60;;;;;;;-0.97;48.20;94140.66;769937;77;26250;-76
2021/01/16 19:11:02;;;;;;;12.60;9.00;;;;;;;-0.97;48.16;94143.72;769980;77;26247;-78
2021/01/16 19:12:06;;;;;;;16.00;9.98;;;;;;;-0.98;48.14;94134.45;769837;77;26350;-78
2021/01/16 19:13:10;;;;;;;16.82;10.13;;;;;;;-0.99;48.11;94134.16;769894;77;26717;-77
2021/01/16 19:14:13;;;;;;;13.40;8.90;;;;;;;-1.01;47.99;94134.40;769817;77;26685;-78
2021/01/16 19:15:17;;;;;;;15.80;10.20;;;;;;;-1.03;47.94;94132.04;769702;77;26305;-78
2021/01/16 19:16:21;;;;;;;14.87;10.15;;;;;;;-1.04;47.96;94136.89;769761;77;26251;-77
2021/01/16 19:17:25;;;;;;;15.28;9.88;;;;;;;-1.06;47.96;94138.91;769913;76;26289;-76
2021/01/16 19:18:30;;;;;;;16.23;9.50;;;;;;;-1.09;47.89;94139.87;783130;76;26709;-79
2021/01/16 19:19:34;;;;;;;17.60;9.80;;;;;;;-1.10;47.86;94140.36;776142;75;26306;-77
2021/01/16 19:20:39;;;;;;;13.25;9.08;;;;;;;-1.13;47.93;94140.83;779239;76;26278;-78
2021/01/16 19:21:42;;;;;;;11.75;8.75;;;;;;;-1.14;47.93;94136.67;783144;76;26287;-78
2021/01/16 19:22:47;;;;;;;14.10;9.15;;;;;;;-1.13;47.85;94144.69;778220;76;26356;-79
2021/01/16 19:23:52;;;;;;;12.75;8.40;;;;;;;-1.13;47.71;94143.40;769743;77;24288;-77
2021/01/16 19:24:56;;;;;;;12.88;8.98;;;;;;;-1.16;47.65;94141.77;769977;76;27091;-78
2021/01/16 19:25:59;;;;;;;14.68;9.58;;;;;;;-1.16;47.55;94135.33;769887;77;26301;-78
2021/01/16 19:27:03;;;;;;;15.80;9.13;;;;;;;-1.17;47.46;94141.50;769894;77;26728;-78
2021/01/16 19:28:07;;;;;;;15.05;9.28;;;;;;;-1.19;47.47;94140.94;778831;76;26260;-79
2021/01/16 19:29:11;;;;;;;14.98;8.93;;;;;;;-1.22;47.37;94144.24;783244;76;26229;-79
2021/01/16 19:30:17;;;;;;;13.25;9.38;;;;;;;-1.23;47.39;94141.38;783061;76;26225;-78
2021/01/16 19:31:34;;;;;;;13.78;9.18;;;;;;;-1.23;47.24;94141.38;783254;76;26234;-78
2021/01/16 19:32:38;;;;;;;14.05;8.90;;;;;;;-1.23;47.16;94145.23;780682;76;26722;-79
2021/01/16 19:33:42;;;;;;;15.83;8.95;;;;;;;-1.25;47.00;94146.47;769782;77;26244;-79
2021/01/16 19:34:46;;;;;;;13.20;8.88;;;;;;;-1.29;46.98;94143.55;769803;77;26669;-79
2021/01/16 19:35:50;;;;;;;13.50;9.93;;;;;;;-1.31;46.90;94142.98;769717;77;26282;-79
2021/01/16 19:36:56;;;;;;;13.32;9.25;;;;;;;-1.32;46.96;94150.41;769870;77;26670;-78
2021/01/16 19:38:00;;;;;;;13.35;8.90;;;;;;;-1.33;46.91;94148.08;776587;76;26229;-79
2021/01/16 19:39:06;;;;;;;14.15;9.40;;;;;;;-1.32;46.78;94152.20;783058;76;26651;-78
2021/01/16 19:40:10;;;;;;;9.98;8.08;;;;;;;-1.33;46.70;94142.94;780686;76;26287;-78
2021/01/16 19:41:14;;;;;;;13.30;8.60;;;;;;;-1.35;46.68;94146.23;769968;77;26301;-77
2021/01/16 19:42:17;;;;;;;11.70;8.30;;;;;;;-1.37;46.57;94149.53;769724;77;26239;-79
2021/01/16 19:43:23;;;;;;;11.53;8.05;;;;;;;-1.38;46.50;94147.95;769918;76;26744;-78
2021/01/16 19:44:26;;;;;;;13.83;8.35;;;;;;;-1.39;46.63;94148.97;769866;77;26291;-79
2021/01/16 19:45:31;;;;;;;13.45;9.05;;;;;;;-1.39;46.55;94142.53;770032;76;26346;-77
2021/01/16 19:46:36;;;;;;;12.63;8.50;;;;;;;-1.39;46.52;94143.83;769786;77;26698;-78
2021/01/16 19:47:48;;;;;;;15.83;8.48;;;;;;;-1.41;46.43;94141.47;771927;76;26372;-79
2021/01/16 19:48:52;;;;;;;11.40;8.40;;;;;;;-1.44;46.50;94149.61;783092;76;26229;-77
2021/01/16 19:49:57;;;;;;;10.50;7.55;;;;;;;-1.46;46.48;94138.28;783090;76;26738;-78
2021/01/16 19:51:01;;;;;;;10.93;8.30;;;;;;;-1.46;46.54;94138.76;782623;76;26631;-79
2021/01/16 19:52:06;;;;;;;12.30;8.85;;;;;;;-1.48;46.54;94137.72;783039;76;26233;-78
2021/01/16 19:53:11;;;;;;;12.20;8.53;;;;;;;-1.48;46.62;94140.77;774692;76;26302;-76
2021/01/16 19:54:15;;;;;;;12.90;8.68;;;;;;;-1.50;46.69;94142.78;769803;77;24228;-76
2021/01/16 19:55:18;;;;;;;12.68;8.43;;;;;;;-1.52;46.70;94140.93;769813;76;26301;-76
2021/01/16 19:56:22;;;;;;;13.03;8.53;;;;;;;-1.53;46.71;94138.86;769744;77;26698;-76
2021/01/16 19:57:26;;;;;;;12.37;8.93;;;;;;;-1.54;46.77;94133.45;769769;76;26239;-77
2021/01/16 19:58:29;;;;;;;13.65;8.40;;;;;;;-1.56;46.86;94138.04;782076;75;26732;-76
2021/01/16 19:59:33;;;;;;;18.05;9.90;;;;;;;-1.55;46.92;94139.59;783095;76;26341;-78
2021/01/16 20:00:38;;;;;;;12.55;8.25;;;;;;;-1.56;46.89;94142.38;777138;76;26280;-74
2021/01/16 20:01:43;;;;;;;10.60;8.90;;;;;;;-1.62;47.01;94141.49;783043;76;26793;-78
2021/01/16 20:02:48;;;;;;;11.35;8.45;;;;;;;-1.62;47.04;94140.20;780262;76;26287;-77
2021/01/16 20:03:59;;;;;;;14.47;9.53;;;;;;;-1.63;47.06;94141.20;769949;77;26247;-76
2021/01/16 20:05:06;;;;;;;15.00;9.10;;;;;;;-1.64;47.12;94136.56;771080;76;24643;-79
2021/01/16 20:06:10;;;;;;;13.50;8.58;;;;;;;-1.66;47.15;94130.08;760302;77;26635;-79
2021/01/16 20:07:13;;;;;;;10.88;7.85;;;;;;;-1.70;47.22;94134.87;764727;77;26295;-78
2021/01/16 20:08:17;;;;;;;11.88;7.75;;;;;;;-1.72;47.27;94135.59;768784;77;26749;-77
2021/01/16 20:09:21;;;;;;;12.50;8.38;;;;;;;-1.73;47.43;94132.72;777791;76;26276;-77
2021/01/16 20:10:25;;;;;;;10.88;7.50;;;;;;;-1.74;47.45;94129.89;772563;77;26277;-78
2021/01/16 20:11:28;;;;;;;11.15;7.95;;;;;;;-1.73;47.45;94129.38;766833;76;26306;-79
2021/01/16 20:12:35;;;;;;;11.70;8.20;;;;;;;-1.72;47.52;94130.45;759943;78;26338;-79
2021/01/16 20:13:38;;;;;;;11.45;7.55;;;;;;;-1.72;47.48;94130.95;760022;78;26299;-78
2021/01/16 20:14:42;;;;;;;12.20;8.78;;;;;;;-1.73;47.44;94134.01;765405;77;26228;-78
2021/01/16 20:15:46;;;;;;;12.35;8.25;;;;;;;-1.72;47.42;94133.02;769582;77;26322;-77
2021/01/16 20:16:52;;;;;;;12.98;8.53;;;;;;;-1.73;47.50;94125.52;779524;76;26229;-79
2021/01/16 20:17:56;;;;;;;11.57;8.33;;;;;;;-1.75;47.50;94125.73;772009;76;24750;-77
2021/01/16 20:19:01;;;;;;;11.80;8.25;;;;;;;-1.75;47.51;94128.81;760106;78;26257;-78
2021/01/16 20:20:06;;;;;;;11.78;7.37;;;;;;;-1.75;47.54;94125.73;764758;77;26249;-78
2021/01/16 20:21:11;;;;;;;14.25;9.05;;;;;;;-1.76;47.52;94128.03;760117;78;26287;-78
2021/01/16 20:22:15;;;;;;;11.80;8.00;;;;;;;-1.75;47.51;94130.09;764684;77;26295;-80
2021/01/16 20:23:18;;;;;;;14.63;9.03;;;;;;;-1.77;47.51;94124.39;760055;77;26295;-77
2021/01/16 20:24:23;;;;;;;10.63;7.70;;;;;;;-1.78;47.51;94124.90;764907;76;26701;-79
2021/01/16 20:25:27;;;;;;;14.28;8.53;;;;;;;-1.79;47.49;94127.17;763349;77;26837;-78
2021/01/16 20:26:32;;;;;;;16.17;9.35;;;;;;;-1.79;47.46;94131.03;777686;76;26689;-78
2021/01/16 20:27:36;;;;;;;11.50;8.30;;;;;;;-1.80;47.44;94133.33;772778;77;26234;-79
2021/01/16 20:28:44;;;;;;;12.75;9.05;;;;;;;-1.82;47.46;94130.97;777847;76;26237;-78
2021/01/16 20:29:48;;;;;;;12.58;7.80;;;;;;;-1.83;47.60;94139.67;772887;77;26282;-76
2021/01/16 20:30:51;;;;;;;13.48;8.58;;;;;;;-1.84;47.70;94138.63;766233;76;26299;-79
2021/01/16 20:32:05;;;;;;;13.10;8.58;;;;;;;-1.83;47.70;94135.05;763593;77;26260;-78
2021/01/16 20:33:09;;;;;;;16.77;9.13;;;;;;;-1.84;47.72;94137.34;777769;76;26277;-79
2021/01/16 20:34:13;;;;;;;17.25;9.10;;;;;;;-1.86;47.75;94136.27;772892;77;26293;-76
2021/01/16 20:35:21;;;;;;;11.20;8.53;;;;;;;-1.87;47.70;94135.20;776029;76;26288;-77
2021/01/16 20:36:32;;;;;;;14.43;8.68;;;;;;;-1.89;47.76;94137.20;759925;78;26240;-78
2021/01/16 20:37:42;;;;;;;15.18;8.95;;;;;;;-1.89;47.77;94133.34;759942;77;26260;-76
2021/01/16 20:38:47;;;;;;;12.60;9.05;;;;;;;-1.91;47.78;94134.07;764665;77;27046;-76
2021/01/16 20:39:52;;;;;;;13.05;8.33;;;;;;;-1.93;47.80;94128.36;760089;78;26648;-78
2021/01/16 20:41:02;;;;;;;13.88;8.80;;;;;;;-1.94;47.88;94125.02;764820;77;26549;-77
2021/01/16 20:42:10;;;;;;;15.10;9.10;;;;;;;-1.94;47.88;94128.09;763637;77;26315;-77
2021/01/16 20:43:10;;;;;;;12.85;9.05;;;;;;;-1.94;47.84;94123.73;773781;76;26317;-77
2021/01/16 20:44:15;;;;;;;14.23;9.30;;;;;;;-1.96;47.80;94126.25;764942;77;26662;-77
2021/01/16 20:45:20;;;;;;;15.05;9.85;;;;;;;-1.97;47.85;94128.01;776660;76;26339;-79
2021/01/16 20:46:24;;;;;;;15.72;9.05;;;;;;;-1.97;47.78;94124.16;760112;77;26240;-79
2021/01/16 20:47:28;;;;;;;15.13;9.28;;;;;;;-1.97;47.82;94120.80;764773;76;26350;-79
2021/01/16 20:48:32;;;;;;;16.82;9.48;;;;;;;-1.98;47.77;94121.82;769049;77;26676;-77
2021/01/16 20:49:37;;;;;;;16.05;9.00;;;;;;;-1.97;47.78;94116.95;777491;76;26242;-79
2021/01/16 20:50:40;;;;;;;16.60;10.23;;;;;;;-1.96;47.83;94119.81;765020;77;26296;-78
2021/01/16 20:51:44;;;;;;;11.22;8.25;;;;;;;-1.96;47.79;94119.81;777529;76;26746;-78
2021/01/16 20:52:49;;;;;;;16.77;10.00;;;;;;;-1.96;47.81;94119.81;772617;77;26282;-78
2021/01/16 20:53:53;;;;;;;13.05;8.78;;;;;;;-1.97;47.82;94118.23;777601;76;26307;-79
2021/01/16 20:54:58;;;;;;;14.68;8.90;;;;;;;-1.98;47.82;94120.03;772629;77;26288;-78
2021/01/16 20:56:02;;;;;;;13.90;9.00;;;;;;;-1.96;47.82;94119.31;763919;73;26281;-78
2021/01/16 20:57:06;;;;;;;14.20;9.48;;;;;;;-1.97;47.85;94120.80;762030;77;26307;-78
2021/01/16 20:58:09;;;;;;;13.45;10.00;;;;;;;-1.98;47.86;94119.25;762059;78;26698;-79
